createdAt,value
2022-11-03T19:41:56.052Z,1.90
2022-11-03T19:44:22.432Z,2.13
2022-11-03T19:46:51.065Z,2.10
2022-11-03T19:49:17.405Z,2.33
2022-11-03T19:51:43.840Z,2.63
2022-11-03T19:54:17.235Z,2.40
2022-11-03T19:56:43.961Z,2.55
2022-11-03T19:59:11.815Z,2.15
2022-11-03T20:01:38.218Z,2.60
2022-11-03T20:04:05.497Z,2.47
2022-11-03T20:06:34.124Z,2.30
2022-11-03T20:09:02.056Z,2.42
2022-11-03T20:11:28.384Z,2.50
2022-11-03T20:13:54.697Z,2.88
2022-11-03T20:16:21.057Z,2.50
2022-11-03T20:18:48.751Z,2.50
2022-11-03T20:21:16.970Z,2.70
2022-11-03T20:23:44.737Z,2.30
2022-11-03T20:26:16.267Z,2.42
2022-11-03T20:28:42.804Z,2.83
2022-11-03T20:31:11.664Z,2.50
2022-11-03T20:33:38.790Z,2.65
2022-11-03T20:36:06.065Z,2.40
2022-11-03T20:38:33.222Z,2.47
2022-11-03T20:41:03.885Z,2.33
2022-11-03T20:43:34.573Z,2.50
2022-11-03T20:46:01.470Z,2.50
2022-11-03T20:48:28.108Z,2.58
2022-11-03T20:50:54.764Z,2.58
2022-11-03T20:53:23.456Z,2.63
2022-11-03T20:55:51.015Z,2.35
2022-11-03T20:58:17.998Z,2.35
2022-11-03T21:00:45.917Z,2.60
2022-11-03T21:03:31.282Z,2.42
2022-11-03T21:06:01.748Z,2.80
2022-11-03T21:08:28.029Z,2.50
2022-11-03T21:10:54.468Z,2.40
2022-11-03T21:13:20.880Z,2.55
2022-11-03T21:16:23.668Z,2.95
2022-11-03T21:21:35.670Z,2.22
2022-11-03T21:24:01.953Z,2.42
2022-11-03T21:26:28.263Z,3.03
2022-11-03T21:28:54.569Z,2.40
2022-11-03T21:31:20.891Z,2.47
2022-11-03T21:33:47.191Z,2.28
2022-11-03T21:36:13.526Z,2.55
2022-11-03T21:38:39.859Z,2.35
2022-11-03T21:41:26.623Z,2.80
2022-11-03T21:44:11.540Z,2.80
2022-11-03T21:46:38.604Z,3.03
2022-11-03T21:49:23.331Z,2.70
2022-11-03T21:51:49.642Z,2.47
2022-11-03T21:54:15.972Z,2.58
2022-11-03T21:56:42.330Z,2.55
2022-11-03T21:59:08.660Z,2.92
2022-11-03T22:01:35.092Z,2.80
2022-11-03T22:04:01.506Z,2.83
2022-11-03T22:06:28.119Z,3.00
2022-11-03T22:08:54.403Z,2.92
2022-11-03T22:11:23.457Z,3.10
2022-11-03T22:13:56.623Z,3.03
2022-11-03T22:16:42.374Z,3.15
2022-11-03T22:19:51.207Z,3.05
2022-11-03T22:22:36.010Z,3.20
2022-11-03T22:25:20.972Z,2.90
2022-11-03T22:27:47.426Z,2.97
2022-11-03T22:30:32.476Z,2.78
2022-11-03T22:32:58.863Z,3.03
2022-11-03T22:35:44.449Z,2.58
2022-11-03T22:38:13.431Z,3.10
2022-11-03T22:41:01.384Z,3.03
2022-11-03T22:43:46.474Z,2.90
2022-11-03T22:46:14.437Z,3.05
2022-11-03T22:48:40.937Z,3.17
2022-11-03T22:51:09.028Z,2.95
2022-11-03T22:53:55.410Z,3.40
2022-11-03T22:56:25.029Z,2.80
2022-11-03T22:58:51.864Z,3.20
2022-11-03T23:01:23.800Z,3.50
2022-11-03T23:03:50.312Z,3.10
2022-11-03T23:06:19.057Z,3.17
2022-11-03T23:08:47.248Z,3.30
2022-11-03T23:11:16.964Z,3.10
2022-11-03T23:13:43.867Z,2.78
2022-11-03T23:16:21.882Z,3.42
2022-11-03T23:19:07.541Z,3.00
2022-11-03T23:21:35.341Z,3.58
2022-11-03T23:24:20.362Z,3.00
2022-11-03T23:26:47.519Z,3.25
2022-11-03T23:29:14.958Z,2.70
2022-11-03T23:31:42.998Z,3.08
2022-11-03T23:34:10.564Z,3.38
2022-11-03T23:36:37.292Z,3.08
2022-11-03T23:39:04.720Z,3.00
2022-11-03T23:41:31.087Z,3.00
2022-11-03T23:43:57.852Z,2.92
2022-11-03T23:46:45.985Z,2.97
2022-11-03T23:49:13.625Z,3.00
2022-11-03T23:51:41.820Z,2.80
2022-11-03T23:54:10.525Z,2.75
2022-11-03T23:56:57.908Z,3.10
2022-11-03T23:59:25.146Z,3.08
